Weather observations for the past three days for
Minneapolis / Blaine
Imperial (Metric)
Date Time (cdt) Wind (mph) Vis. (mi.) Weather Sky Cond. Temperature (ºF) Relative Humidity Wind Chill (°F) Heat Index (°F) Pressure Precipitation (in)
Air Dwpt 6 hour altimeter (in) sea level (mb) 1 hr 3 hr 6 hr
Max. Min.
05 09:50 NW 12 G 18 10.00 Fair CLR 44.6 21.2 39% 39 29.84 0.0
05 08:50 NW 12 10.00 Fair CLR 44.6 21.2 39% 39 29.83 0.0
05 07:50 NW 12 G 17 10.00 Fair CLR 41 21.2 45% 35 29.81 0.0
05 06:58 NW 12 10.00 Fair CLR 37.4 24.8 60% 30 29.79 0.0
05 06:55 NW 12 10.00 Fair CLR 37.4 24.8 60% 30 29.79 0.0
05 06:35 NW 8 10.00 Fair CLR 37.4 24.8 60% 32 29.78 0.0
05 06:15 NW 8 10.00 Fair CLR 35.6 26.6 70% 30 29.77 0.0
05 05:55 NW 8 10.00 Fair CLR 37.4 26.6 65% 32 29.77 0.0
05 05:35 NW 10 10.00 Fair CLR 37.4 26.6 65% 31 29.77 0.0
05 05:15 NW 9 10.00 Fair CLR 37.4 26.6 65% 31 29.76 0.0
05 04:55 NW 9 10.00 Fair CLR 37.4 26.6 65% 31 29.77 0.0
05 04:35 NW 9 10.00 Fair CLR 37.4 26.6 65% 31 29.76 0.0
05 04:15 NW 8 10.00 Fair CLR 39.2 26.6 61% 34 29.76 0.0
05 03:55 NW 10 10.00 Fair CLR 39.2 26.6 61% 33 29.75 0.0
05 03:35 NW 12 10.00 Fair CLR 39.2 26.6 61% 33 29.74 0.0
05 03:15 NW 12 10.00 Fair CLR 41 26.6 57% 35 29.73 0.0
05 02:55 NW 10 10.00 Fair CLR 42.8 26.6 53% 38 29.73 0.0
05 02:35 NW 12 10.00 Fair CLR 41 26.6 57% 35 29.73 0.0
05 02:15 W 8 10.00 Fair CLR 41 26.6 57% 36 29.72 0.0
05 01:55 W 9 10.00 Fair CLR 42.8 24.8 49% 38 29.73 0.0
05 01:35 W 12 10.00 Fair CLR 42.8 24.8 49% 37 29.73 0.0
05 01:15 W 10 G 16 10.00 Fair CLR 44.6 24.8 46% 40 29.72 0.0
05 00:55 W 15 G 20 10.00 Fair CLR 44.6 24.8 46% 38 29.72 0.0
05 00:35 NW 12 10.00 Fair CLR 44.6 24.8 46% 39 29.72 0.0
05 00:15 W 9 G 16 10.00 Fair CLR 44.6 24.8 46% 40 29.71 0.0
04 23:55 W 8 10.00 Fair CLR 44.6 26.6 49% 41 29.71 0.0
04 23:35 W 8 10.00 Fair CLR 44.6 24.8 46% 41 29.71 0.0
04 23:15 W 8 10.00 Fair CLR 44.6 24.8 46% 41 29.71 0.0
04 22:55 W 9 10.00 Fair CLR 44.6 24.8 46% 40 29.71 0.0
04 22:35 W 7 10.00 Fair CLR 44.6 24.8 46% 41 29.7 0.0
04 22:15 W 6 10.00 Fair CLR 44.6 24.8 46% 42 29.7 0.0
04 21:45 W 6 10.00 Fair CLR 44.6 24.8 46% 42 29.7 0.0
04 20:52 NW 12 G 17 10.00 Fair CLR 48.2 21.2 34% 44 29.68 0.0
04 19:45 NW 16 10.00 Mostly Cloudy BKN070 51.8 24.8 35% 29.66 0.0
04 18:45 NW 22 G 26 10.00 Mostly Cloudy and Breezy BKN070 53.6 24.8 33% 29.63 0.0
04 17:45 W 20 G 29 10.00 Partly Cloudy SCT070 55.4 24.8 31% 29.61 0.0
04 16:45 W 21 G 30 10.00 Partly Cloudy and Breezy SCT070 57.2 26.6 31% 29.58 0.0
04 15:49 W 21 G 28 10.00 Mostly Cloudy and Breezy BKN070 60.8 28.4 29% 29.56 0.0
04 14:50 W 24 G 30 10.00 Partly Cloudy and Breezy SCT060 60.8 30.2 31% 29.54 0.0
04 13:50 NW 21 G 29 10.00 Partly Cloudy and Breezy SCT060 60.8 30.2 31% 29.52 0.0
04 12:50 W 23 G 29 10.00 Fair and Breezy CLR 62.6 30.2 30% 29.49 0.0
04 11:50 W 18 G 28 10.00 Fair CLR 62.6 32 32% 29.48 0.0
04 10:50 W 17 G 26 10.00 Fair CLR 62.6 33.8 34% 29.47 0.0
04 09:50 W 16 G 25 10.00 Fair CLR 60.8 32 34% 29.46 0.0
04 08:50 NW 14 G 23 10.00 Fair CLR 60.8 32 34% 29.46 0.0
04 07:50 W 12 G 17 10.00 Fair CLR 62.6 37.4 39% 29.43 0.0
04 06:58 W 14 G 26 10.00 Fair CLR 62.6 32 32% 29.4 0.0
04 06:55 W 20 G 26 10.00 Fair CLR 62.6 32 32% 29.4 0.0
04 06:35 W 14 G 24 10.00 Fair CLR 62.6 32 32% 29.38 0.0
04 06:15 SW 14 G 18 10.00 Fair CLR 60.8 30.2 31% 29.38 0.0
04 05:55 SW 10 10.00 Partly Cloudy SCT110 59 30.2 34% 29.38 0.0
04 05:35 SW 13 G 17 10.00 Mostly Cloudy BKN110 60.8 30.2 31% 29.38 0.0
04 05:15 SW 12 G 20 10.00 Fair CLR 59 30.2 34% 29.38 0.0
04 04:55 SW 13 G 17 10.00 Fair CLR 60.8 28.4 29% 29.39 0.0
04 04:35 SW 13 G 17 10.00 Fair CLR 60.8 28.4 29% 29.4 0.0
04 04:15 SW 12 G 16 10.00 Fair CLR 60.8 28.4 29% 29.42 0.0
04 03:55 S 13 10.00 Fair CLR 59 28.4 31% 29.42 0.0
04 03:35 S 10 10.00 Fair CLR 59 28.4 31% 29.44 0.0
04 03:15 S 12 10.00 Fair CLR 59 28.4 31% 29.45 0.0
04 02:55 S 9 10.00 Fair CLR 57.2 28.4 33% 29.46 0.0
04 02:35 S 7 10.00 Fair CLR 57.2 30.2 36% 29.47 0.0
04 02:15 S 9 10.00 Fair CLR 59 28.4 31% 29.48 0.0
04 01:55 S 10 G 17 10.00 Fair CLR 59 30.2 34% 29.49 0.0
04 01:35 S 10 10.00 Fair CLR 59 28.4 31% 29.51 0.0
04 01:15 S 9 10.00 Fair CLR 59 30.2 34% 29.52 0.0
04 00:55 S 10 10.00 Fair CLR 57.2 30.2 36% 29.53 0.0
04 00:35 S 10 10.00 Fair CLR 59 30.2 34% 29.54 0.0
04 00:15 S 8 10.00 Fair CLR 57.2 30.2 36% 29.56 0.0
03 23:55 S 8 10.00 Fair CLR 55.4 30.2 38% 29.57 0.0
03 23:35 S 8 10.00 Fair CLR 55.4 32 41% 29.58 0.0
03 23:15 S 6 10.00 Fair CLR 55.4 30.2 38% 29.59 0.0
03 22:55 S 6 10.00 Fair CLR 55.4 30.2 38% 29.6 0.0
03 22:35 S 6 10.00 Fair CLR 55.4 30.2 38% 29.61 0.0
03 22:15 S 3 10.00 Fair CLR 55.4 30.2 38% 29.63 0.0
03 21:49 SW 5 10.00 Fair CLR 60.8 28.4 29% 29.64 0.0
03 20:45 SW 5 10.00 Fair CLR 64.4 26.6 24% 29.64 0.0
03 19:45 W 9 10.00 Fair CLR 68 24.8 20% 29.64 0.0
03 18:54 W 9 10.00 Fair CLR 69.8 26.6 20% 29.65 0.0
03 17:45 W 10 10.00 Fair CLR 71.6 23 16% 29.66 0.0
03 16:45 W 13 G 17 10.00 Fair CLR 71.6 24.8 17% 29.67 0.0
03 15:51 NW 9 G 24 10.00 Fair CLR 71.6 24.8 17% 29.69 0.0
03 14:47 W 16 G 20 10.00 Fair CLR 69.8 26.6 20% 29.7 0.0
03 13:45 NW 13 G 21 10.00 Fair CLR 69.8 23 17% 29.71 0.0
03 12:50 NW 15 G 21 10.00 Fair CLR 69.8 33.8 27% 29.72 0.0
03 11:45 N 10 G 24 10.00 Fair CLR 68 35.6 30% 29.73 0.0
03 10:45 N 15 10.00 Fair CLR 66.2 35.6 32% 29.72 0.0
03 09:45 N 14 10.00 Fair CLR 64.4 35.6 34% 29.72 0.0
03 08:50 N 17 10.00 Fair CLR 60.8 35.6 39% 29.7 0.0
03 07:50 NW 6 10.00 Fair CLR 55.4 35.6 47% 29.69 0.0
03 06:57 Calm 10.00 Fair CLR 51.8 33.8 50% 29.68 0.0
03 06:35 Calm 10.00 Fair CLR 53.6 32 44% 29.67 0.0
03 06:15 SW 5 10.00 Fair CLR 55.4 32 41% 29.66 0.0
03 05:55 S 3 10.00 Fair CLR 53.6 32 44% 29.66 0.0
03 05:35 S 8 10.00 Fair CLR 53.6 32 44% 29.65 0.0
03 05:15 S 8 10.00 Fair CLR 55.4 30.2 38% 29.66 0.0
03 04:55 SW 10 G 16 10.00 Fair CLR 57.2 30.2 36% 29.66 0.0
03 04:35 SW 12 G 17 10.00 Fair CLR 57.2 30.2 36% 29.66 0.0
03 04:15 S 10 10.00 Fair CLR 57.2 30.2 36% 29.67 0.0
03 03:55 SW 8 10.00 Fair CLR 59 32 36% 29.67 0.0
03 03:35 SW 9 10.00 Partly Cloudy SCT100 59 33.8 39% 29.68 0.0
03 03:15 SW 7 10.00 Partly Cloudy SCT100 59 35.6 42% 29.68 0.0
03 02:55 S 7 10.00 Partly Cloudy SCT100 57.2 35.6 44% 29.68 0.0
03 02:35 S 8 10.00 Mostly Cloudy BKN100 59 35.6 42% 29.69 0.0
03 02:15 S 9 10.00 Partly Cloudy SCT100 59 37.4 45% 29.69 0.0
03 01:55 S 9 10.00 Partly Cloudy SCT100 59 35.6 42% 29.7 0.0
03 01:35 SW 8 10.00 Fair CLR 59 35.6 42% 29.71 0.0
03 01:15 S 9 10.00 Fair CLR 59 33.8 39% 29.72 0.0
03 00:55 S 10 10.00 Fair CLR 60.8 32 34% 29.74 0.0
03 00:35 S 13 G 18 10.00 Fair CLR 60.8 32 34% 29.74 0.0
03 00:15 S 9 10.00 Partly Cloudy SCT100 57.2 33.8 41% 29.74 0.0
02 23:55 S 10 G 16 10.00 Mostly Cloudy BKN100 60.8 33.8 36% 29.75 0.0
02 23:35 S 9 10.00 Partly Cloudy SCT100 59 33.8 39% 29.76 0.0
02 23:15 S 8 10.00 Mostly Cloudy SCT075 BKN110 59 33.8 39% 29.76 0.0
02 22:55 S 8 10.00 Mostly Cloudy SCT075 BKN095 60.8 33.8 36% 29.77 0.0
02 22:35 S 8 10.00 Mostly Cloudy SCT075 BKN095 60.8 33.8 36% 29.78 0.0
02 22:15 S 7 10.00 Mostly Cloudy SCT075 BKN100 62.6 33.8 34% 29.79 0.0
02 21:58 S 7 10.00 Mostly Cloudy BKN100 60.8 33.8 36% 29.8 0.0
02 19:58 SW 9 10.00 Mostly Cloudy BKN095 64.4 30.2 28% 29.83 0.0
02 18:58 SW 10 10.00 Partly Cloudy SCT070 SCT095 66.2 30.2 26% 29.83 0.0
02 17:51 SW 7 10.00 Fair CLR 66.2 28.4 24% 29.85 0.0
02 16:55 W 9 G 18 10.00 Partly Cloudy SCT110 66.2 28.4 24% 29.86 0.0
02 15:58 W 8 10.00 Mostly Cloudy BKN110 66.2 28.4 24% 29.88 0.0
02 14:58 W 13 G 20 10.00 Fair CLR 64.4 28.4 26% 29.93 0.0
02 13:50 SW 12 10.00 Partly Cloudy SCT110 62.6 26.6 25% 29.97 0.0
02 12:50 SW 12 G 17 10.00 Fair CLR 60.8 26.6 27% 29.99 0.0
02 11:50 SW 7 10.00 Fair CLR 59 24.8 27% 30.02 0.0
02 10:50 W 12 G 18 10.00 Fair CLR 57.2 24.8 29% 30.05 0.0
Date Time (cdt) Wind (mph) Vis. (mi.) Weather Sky Cond. Air Dwpt Max. Min. Relative Humidity Wind Chill (°F) Heat Index (°F) altimeter (in) sea level (mb) 1 hr 3 hr 6 hr
6 hour
Temperature (ºF) Pressure Precipitation (in)